Time;durP1;ratioP1;P1;durP2;ratioP2;P2;SDS_P1;SDS_P2;PMS_P1;PMS_P2;Temp;Humidity;BMP_temperature;BMP_pressure;BME280_temperature;BME280_humidity;BME280_pressure;Samples;Min_cycle;Max_cycle;Signal;HPM_P1;HPM_P2
2023/05/23 00:00:26;;;;;;;12.68;11.48;;;;;;;;;;5064246;28;20205;-69
2023/05/23 00:02:52;;;;;;;12.48;11.27;;;;;;;;;;5064008;28;20204;-69
2023/05/23 00:05:19;;;;;;;12.50;11.35;;;;;;;;;;5063838;28;20204;-69
2023/05/23 00:07:45;;;;;;;13.45;12.05;;;;;;;;;;5064144;28;20501;-69
2023/05/23 00:10:11;;;;;;;15.68;11.85;;;;;;;;;;5063798;28;20220;-69
2023/05/23 00:12:38;;;;;;;12.77;11.38;;;;;;;;;;5063494;28;20255;-69
2023/05/23 00:15:07;;;;;;;13.95;11.90;;;;;;;;;;5063679;28;20532;-69
2023/05/23 00:17:36;;;;;;;14.13;11.68;;;;;;;;;;5056170;28;20220;-69
2023/05/23 00:20:03;;;;;;;15.38;12.85;;;;;;;;;;5063876;28;20396;-69
2023/05/23 00:22:29;;;;;;;12.93;11.52;;;;;;;;;;5063491;28;20219;-69
2023/05/23 00:24:56;;;;;;;12.93;11.73;;;;;;;;;;5063442;28;20436;-69
2023/05/23 00:27:22;;;;;;;13.40;11.55;;;;;;;;;;5063598;28;20217;-69
2023/05/23 00:29:49;;;;;;;12.63;11.32;;;;;;;;;;5063532;28;20430;-69
2023/05/23 00:32:15;;;;;;;12.75;11.45;;;;;;;;;;5063150;28;20198;-69
2023/05/23 00:34:44;;;;;;;14.02;12.50;;;;;;;;;;5063486;28;20243;-69
2023/05/23 00:37:10;;;;;;;13.88;11.48;;;;;;;;;;5063089;28;20221;-69
2023/05/23 00:39:36;;;;;;;13.35;11.95;;;;;;;;;;5063207;28;20319;-69
2023/05/23 00:42:04;;;;;;;13.27;11.85;;;;;;;;;;5063285;28;20201;-69
2023/05/23 00:44:30;;;;;;;13.98;12.55;;;;;;;;;;5063103;28;20201;-69
2023/05/23 00:46:57;;;;;;;15.43;12.80;;;;;;;;;;5063316;28;20567;-69
2023/05/23 00:49:23;;;;;;;14.38;12.63;;;;;;;;;;5063145;28;20201;-69
2023/05/23 00:51:51;;;;;;;15.20;12.88;;;;;;;;;;5063075;28;20204;-69
2023/05/23 00:54:18;;;;;;;15.13;12.35;;;;;;;;;;5062714;28;20287;-69
2023/05/23 00:56:45;;;;;;;16.17;13.82;;;;;;;;;;5062918;28;20205;-69
2023/05/23 00:59:12;;;;;;;16.52;13.93;;;;;;;;;;5061918;28;20289;-69
2023/05/23 01:01:39;;;;;;;14.27;12.85;;;;;;;;;;5062847;28;20197;-69
2023/05/23 01:04:06;;;;;;;18.80;15.80;;;;;;;;;;5062818;28;20205;-69
2023/05/23 01:06:32;;;;;;;20.38;15.23;;;;;;;;;;5054865;28;20240;-69
2023/05/23 01:09:01;;;;;;;16.17;14.13;;;;;;;;;;5062513;28;20197;-69
2023/05/23 01:11:30;;;;;;;16.45;14.52;;;;;;;;;;5062576;28;20490;-69
2023/05/23 01:14:00;;;;;;;19.90;15.45;;;;;;;;;;5062464;28;20355;-69
2023/05/23 01:16:32;;;;;;;20.58;16.50;;;;;;;;;;5062701;28;20243;-69
2023/05/23 01:19:03;;;;;;;18.98;16.30;;;;;;;;;;5062553;28;20232;-69
2023/05/23 01:21:30;;;;;;;22.10;17.05;;;;;;;;;;5062448;28;20224;-69
2023/05/23 01:24:17;;;;;;;20.30;17.08;;;;;;;;;;5062433;28;20204;-69
2023/05/23 01:26:55;;;;;;;22.02;17.13;;;;;;;;;;5055403;28;20197;-69
2023/05/23 01:29:24;;;;;;;20.63;16.67;;;;;;;;;;5062602;28;20400;-69
2023/05/23 01:31:53;;;;;;;20.15;17.02;;;;;;;;;;5062435;28;20204;-69
2023/05/23 01:34:19;;;;;;;24.80;18.00;;;;;;;;;;5061957;28;20509;-69
2023/05/23 01:36:45;;;;;;;21.77;17.17;;;;;;;;;;5062641;28;20197;-69
2023/05/23 01:39:11;;;;;;;22.05;17.58;;;;;;;;;;5061952;28;20225;-69
2023/05/23 01:41:38;;;;;;;23.02;18.00;;;;;;;;;;5062218;28;20201;-69
2023/05/23 01:44:04;;;;;;;22.67;17.45;;;;;;;;;;5061951;28;20205;-69
2023/05/23 01:46:33;;;;;;;20.77;17.88;;;;;;;;;;5061928;28;20204;-69
2023/05/23 01:49:00;;;;;;;26.38;18.88;;;;;;;;;;5062428;28;20208;-69
2023/05/23 01:51:27;;;;;;;25.92;20.48;;;;;;;;;;5061907;28;20201;-69
2023/05/23 01:53:53;;;;;;;26.33;20.25;;;;;;;;;;5062108;28;20214;-69
2023/05/23 01:56:20;;;;;;;30.20;21.13;;;;;;;;;;5061824;28;20200;-69
2023/05/23 01:58:46;;;;;;;30.48;22.50;;;;;;;;;;5061819;28;20216;-69
2023/05/23 02:01:13;;;;;;;32.35;21.90;;;;;;;;;;5061836;28;20239;-69
2023/05/23 02:03:40;;;;;;;27.08;21.13;;;;;;;;;;5061756;28;20197;-69
2023/05/23 02:06:07;;;;;;;30.38;22.45;;;;;;;;;;5061765;28;20227;-69
2023/05/23 02:08:33;;;;;;;33.78;22.92;;;;;;;;;;5061505;28;20201;-69
2023/05/23 02:10:59;;;;;;;32.72;22.67;;;;;;;;;;5061607;28;20201;-69
2023/05/23 02:13:25;;;;;;;28.90;21.65;;;;;;;;;;5061526;28;20373;-69
2023/05/23 02:15:52;;;;;;;29.75;21.83;;;;;;;;;;5061548;28;20204;-69
2023/05/23 02:18:18;;;;;;;30.80;23.75;;;;;;;;;;5061532;28;20282;-69
2023/05/23 02:20:45;;;;;;;30.77;23.42;;;;;;;;;;5061627;28;20255;-69
2023/05/23 02:23:12;;;;;;;35.17;22.63;;;;;;;;;;5061297;28;20201;-70
2023/05/23 02:25:38;;;;;;;36.55;25.40;;;;;;;;;;5061490;28;20235;-70
2023/05/23 02:28:04;;;;;;;42.17;25.90;;;;;;;;;;5061504;28;20217;-70
2023/05/23 02:30:30;;;;;;;40.47;27.48;;;;;;;;;;5061502;28;20213;-70
2023/05/23 02:32:57;;;;;;;39.90;26.85;;;;;;;;;;5061459;28;20201;-70
2023/05/23 02:35:23;;;;;;;41.90;27.48;;;;;;;;;;5061440;28;20208;-70
2023/05/23 02:37:51;;;;;;;42.10;25.75;;;;;;;;;;5061342;28;20286;-70
2023/05/23 02:40:17;;;;;;;35.80;26.10;;;;;;;;;;5061576;28;20223;-70
2023/05/23 02:42:43;;;;;;;37.83;26.15;;;;;;;;;;5061376;28;20535;-70
2023/05/23 02:45:10;;;;;;;37.03;26.95;;;;;;;;;;5061424;28;20315;-70
2023/05/23 02:47:36;;;;;;;37.08;26.70;;;;;;;;;;5061346;28;20239;-70
2023/05/23 02:50:02;;;;;;;35.58;26.10;;;;;;;;;;5061344;28;20279;-70
2023/05/23 02:52:29;;;;;;;40.45;25.23;;;;;;;;;;5061378;28;20205;-70
2023/05/23 02:54:56;;;;;;;43.00;28.70;;;;;;;;;;5061466;28;20208;-70
2023/05/23 02:57:22;;;;;;;46.10;29.38;;;;;;;;;;5061340;28;20201;-70
2023/05/23 02:59:49;;;;;;;47.47;30.23;;;;;;;;;;5061242;28;20217;-70
2023/05/23 03:02:15;;;;;;;51.63;31.20;;;;;;;;;;5061154;28;20201;-70
2023/05/23 03:04:41;;;;;;;45.55;29.40;;;;;;;;;;5061672;28;20201;-70
2023/05/23 03:07:10;;;;;;;45.72;29.83;;;;;;;;;;5061457;28;20205;-70
2023/05/23 03:09:36;;;;;;;41.53;28.98;;;;;;;;;;5061163;28;20200;-70
2023/05/23 03:12:04;;;;;;;42.40;27.80;;;;;;;;;;5061186;28;20508;-70
2023/05/23 03:14:30;;;;;;;41.00;28.23;;;;;;;;;;5061059;28;20272;-69
2023/05/23 03:16:56;;;;;;;39.22;26.90;;;;;;;;;;5061222;28;20201;-69
2023/05/23 03:19:23;;;;;;;40.03;27.85;;;;;;;;;;5060964;28;20429;-69
2023/05/23 03:21:51;;;;;;;40.22;27.23;;;;;;;;;;5062166;28;20197;-69
2023/05/23 03:24:17;;;;;;;41.88;26.45;;;;;;;;;;5064446;28;20539;-69
2023/05/23 03:26:43;;;;;;;40.65;27.50;;;;;;;;;;5064733;28;20207;-69
2023/05/23 03:29:11;;;;;;;46.65;29.90;;;;;;;;;;5064485;28;20247;-69
2023/05/23 03:31:37;;;;;;;43.20;29.40;;;;;;;;;;5064495;28;20372;-69
2023/05/23 03:34:04;;;;;;;51.38;31.10;;;;;;;;;;5064641;28;20223;-69
2023/05/23 03:36:32;;;;;;;46.58;30.88;;;;;;;;;;5064399;28;20201;-69
2023/05/23 03:38:58;;;;;;;52.63;30.88;;;;;;;;;;5064676;28;20247;-69
2023/05/23 03:41:25;;;;;;;46.67;30.52;;;;;;;;;;5064485;28;20518;-69
2023/05/23 03:43:51;;;;;;;44.17;29.60;;;;;;;;;;5064237;28;20235;-69
2023/05/23 03:46:18;;;;;;;48.63;30.50;;;;;;;;;;5064173;28;20420;-70
2023/05/23 03:48:45;;;;;;;46.42;29.75;;;;;;;;;;5064273;28;20197;-70
2023/05/23 03:51:12;;;;;;;45.05;29.92;;;;;;;;;;5064223;28;20201;-70
2023/05/23 03:53:38;;;;;;;43.03;28.52;;;;;;;;;;5063883;28;20211;-70
2023/05/23 03:56:04;;;;;;;51.63;31.63;;;;;;;;;;5064172;28;20239;-70
2023/05/23 03:58:31;;;;;;;50.08;32.28;;;;;;;;;;5063843;28;20221;-70
2023/05/23 04:00:57;;;;;;;53.75;32.42;;;;;;;;;;5063990;28;20201;-70
2023/05/23 04:03:24;;;;;;;47.90;30.50;;;;;;;;;;5063751;28;20200;-70
2023/05/23 04:05:51;;;;;;;42.58;28.58;;;;;;;;;;5064011;28;20205;-70
2023/05/23 04:08:20;;;;;;;46.28;27.95;;;;;;;;;;5064022;28;20197;-70
2023/05/23 04:10:47;;;;;;;43.95;29.98;;;;;;;;;;5056088;28;20220;-70
2023/05/23 04:13:14;;;;;;;36.22;25.73;;;;;;;;;;5063501;28;20216;-70
2023/05/23 04:15:41;;;;;;;36.83;25.95;;;;;;;;;;5063727;28;20215;-70
2023/05/23 04:18:08;;;;;;;38.63;25.08;;;;;;;;;;5064063;28;20381;-70
2023/05/23 04:20:35;;;;;;;33.65;25.17;;;;;;;;;;5064010;28;20239;-70
2023/05/23 04:23:01;;;;;;;35.40;25.27;;;;;;;;;;5063725;28;20246;-70
2023/05/23 04:25:28;;;;;;;32.05;24.52;;;;;;;;;;5063685;28;20244;-70
2023/05/23 04:27:54;;;;;;;32.67;23.52;;;;;;;;;;5063536;28;20225;-70
2023/05/23 04:30:21;;;;;;;32.40;23.67;;;;;;;;;;5064164;28;20204;-70
2023/05/23 04:32:47;;;;;;;29.77;22.83;;;;;;;;;;5063613;28;20264;-70
2023/05/23 04:35:13;;;;;;;31.70;23.02;;;;;;;;;;5063642;28;20201;-70
2023/05/23 04:37:41;;;;;;;37.65;24.88;;;;;;;;;;5063544;28;20205;-70
2023/05/23 04:40:08;;;;;;;37.80;24.00;;;;;;;;;;5063551;28;20236;-70
2023/05/23 04:42:34;;;;;;;39.20;26.83;;;;;;;;;;5063203;28;20247;-70
2023/05/23 04:45:02;;;;;;;40.25;27.95;;;;;;;;;;5063422;28;20213;-70
2023/05/23 04:47:33;;;;;;;36.75;25.95;;;;;;;;;;5063360;28;20228;-70
2023/05/23 04:49:59;;;;;;;52.75;36.55;;;;;;;;;;5063539;28;20259;-70
2023/05/23 04:52:26;;;;;;;54.97;37.10;;;;;;;;;;5062988;28;20223;-70
2023/05/23 04:54:54;;;;;;;57.83;41.10;;;;;;;;;;5063308;28;20475;-70
2023/05/23 04:57:21;;;;;;;67.55;45.05;;;;;;;;;;5063130;28;20209;-70
2023/05/23 04:59:47;;;;;;;71.70;47.75;;;;;;;;;;5063220;28;20216;-70
2023/05/23 05:02:13;;;;;;;79.93;51.35;;;;;;;;;;5062884;28;20209;-70
2023/05/23 05:04:40;;;;;;;80.20;49.08;;;;;;;;;;5063270;28;20497;-70
2023/05/23 05:07:06;;;;;;;74.75;48.70;;;;;;;;;;5062630;28;20279;-70
2023/05/23 05:09:32;;;;;;;77.15;49.58;;;;;;;;;;5062903;28;20238;-70
2023/05/23 05:12:00;;;;;;;76.88;49.55;;;;;;;;;;5062875;28;20208;-70
2023/05/23 05:14:26;;;;;;;74.78;49.50;;;;;;;;;;5062934;28;20209;-70
2023/05/23 05:16:53;;;;;;;70.85;46.05;;;;;;;;;;5062935;28;20209;-70
2023/05/23 05:19:19;;;;;;;69.38;47.63;;;;;;;;;;5062746;28;20216;-70
2023/05/23 05:21:46;;;;;;;76.68;48.67;;;;;;;;;;5062572;28;20204;-70
2023/05/23 05:24:12;;;;;;;76.60;48.55;;;;;;;;;;5062205;28;20198;-70
2023/05/23 05:26:38;;;;;;;71.63;45.83;;;;;;;;;;5062684;28;20201;-70
2023/05/23 05:29:06;;;;;;;69.68;47.88;;;;;;;;;;5055231;28;20540;-70
2023/05/23 05:31:32;;;;;;;67.90;46.50;;;;;;;;;;5050316;28;20285;-70
2023/05/23 05:33:58;;;;;;;73.50;43.45;;;;;;;;;;5056937;28;20418;-70
2023/05/23 05:36:25;;;;;;;64.03;44.35;;;;;;;;;;5054571;28;20263;-70
2023/05/23 05:38:51;;;;;;;70.40;47.08;;;;;;;;;;5056875;28;20275;-70
2023/05/23 05:41:18;;;;;;;61.08;43.75;;;;;;;;;;5058690;28;20235;-70
2023/05/23 05:43:44;;;;;;;74.80;46.45;;;;;;;;;;5056959;28;20571;-70
2023/05/23 05:46:12;;;;;;;73.97;47.05;;;;;;;;;;5041155;28;20214;-69
2023/05/23 05:48:38;;;;;;;67.50;46.13;;;;;;;;;;5050191;28;20205;-69
2023/05/23 05:51:04;;;;;;;61.42;44.20;;;;;;;;;;5057073;28;20444;-69
2023/05/23 05:53:30;;;;;;;65.57;45.20;;;;;;;;;;5058006;28;20213;-69
2023/05/23 05:55:57;;;;;;;68.82;46.40;;;;;;;;;;5053412;28;20296;-69
2023/05/23 05:58:23;;;;;;;60.60;41.65;;;;;;;;;;5053151;28;20251;-69
2023/05/23 06:00:49;;;;;;;64.85;44.00;;;;;;;;;;5051650;28;20219;-69
2023/05/23 06:03:17;;;;;;;64.43;44.30;;;;;;;;;;5048887;28;20213;-69
2023/05/23 06:05:43;;;;;;;61.58;43.00;;;;;;;;;;5056813;28;20217;-70
2023/05/23 06:08:09;;;;;;;63.88;43.40;;;;;;;;;;5045472;28;20205;-70
2023/05/23 06:10:37;;;;;;;64.50;44.15;;;;;;;;;;5055884;28;20215;-70
2023/05/23 06:13:03;;;;;;;69.35;43.72;;;;;;;;;;5051287;28;20270;-70
2023/05/23 06:15:29;;;;;;;61.80;44.47;;;;;;;;;;5048395;28;20615;-70
2023/05/23 06:17:56;;;;;;;62.60;43.30;;;;;;;;;;5047966;28;20422;-70
2023/05/23 06:20:23;;;;;;;60.03;41.38;;;;;;;;;;5056052;28;20536;-70
2023/05/23 06:22:49;;;;;;;64.78;42.97;;;;;;;;;;5051494;28;20209;-70
2023/05/23 06:25:16;;;;;;;62.28;43.67;;;;;;;;;;5055784;28;20296;-60
2023/05/23 06:27:43;;;;;;;55.80;40.55;;;;;;;;;;5056618;28;20229;-60
2023/05/23 06:30:10;;;;;;;58.30;41.78;;;;;;;;;;5050096;28;20210;-60
2023/05/23 06:32:37;;;;;;;59.92;44.10;;;;;;;;;;5049296;28;20521;-60
2023/05/23 06:35:04;;;;;;;60.88;41.97;;;;;;;;;;5048824;28;20220;-59
2023/05/23 06:37:33;;;;;;;59.33;41.95;;;;;;;;;;5055861;28;20259;-59
2023/05/23 06:39:59;;;;;;;60.20;41.80;;;;;;;;;;5054845;28;20225;-59
2023/05/23 06:42:26;;;;;;;57.58;42.28;;;;;;;;;;5056532;28;20212;-60
2023/05/23 06:44:52;;;;;;;59.05;41.38;;;;;;;;;;5048239;28;20524;-59
2023/05/23 06:47:19;;;;;;;57.17;41.78;;;;;;;;;;5050502;28;20531;-59
2023/05/23 06:49:45;;;;;;;59.58;41.95;;;;;;;;;;5054303;28;20217;-59
2023/05/23 06:52:11;;;;;;;57.00;39.78;;;;;;;;;;5050082;28;20227;-60
2023/05/23 06:54:39;;;;;;;53.17;38.90;;;;;;;;;;5047816;28;20432;-60
2023/05/23 06:57:05;;;;;;;57.78;42.13;;;;;;;;;;5047203;28;20220;-60
2023/05/23 06:59:32;;;;;;;58.97;42.03;;;;;;;;;;5045280;28;20229;-60
2023/05/23 07:01:58;;;;;;;51.47;40.85;;;;;;;;;;5044308;28;20213;-61
2023/05/23 07:04:24;;;;;;;57.70;41.17;;;;;;;;;;5046550;28;20466;-59
2023/05/23 07:06:51;;;;;;;49.55;39.45;;;;;;;;;;5046652;28;20224;-60
2023/05/23 07:09:17;;;;;;;59.50;40.50;;;;;;;;;;5052575;28;20258;-59
2023/05/23 07:11:45;;;;;;;52.63;40.70;;;;;;;;;;5059751;28;20213;-60
2023/05/23 07:14:11;;;;;;;50.65;40.20;;;;;;;;;;5050624;28;20229;-59
2023/05/23 07:16:37;;;;;;;53.50;40.35;;;;;;;;;;5049428;28;20214;-60
2023/05/23 07:19:05;;;;;;;57.20;41.40;;;;;;;;;;5051501;28;20447;-59
2023/05/23 07:21:31;;;;;;;52.70;38.95;;;;;;;;;;5053764;28;20400;-60
2023/05/23 07:23:57;;;;;;;54.00;41.65;;;;;;;;;;5051854;28;20220;-60
2023/05/23 07:26:24;;;;;;;49.13;39.28;;;;;;;;;;5058733;28;20217;-61
2023/05/23 07:28:51;;;;;;;52.88;39.92;;;;;;;;;;5058410;28;20271;-61
2023/05/23 07:31:17;;;;;;;54.28;42.47;;;;;;;;;;5049795;28;20213;-62
2023/05/23 07:33:44;;;;;;;56.60;42.90;;;;;;;;;;5055416;28;20255;-61
2023/05/23 07:36:10;;;;;;;57.25;43.78;;;;;;;;;;5059571;28;20213;-61
2023/05/23 07:38:36;;;;;;;61.17;42.50;;;;;;;;;;5048731;28;20255;-61
2023/05/23 07:41:03;;;;;;;53.10;42.53;;;;;;;;;;5052862;28;20236;-61
2023/05/23 07:43:29;;;;;;;55.25;41.03;;;;;;;;;;5059452;28;20220;-61
2023/05/23 07:45:56;;;;;;;55.80;40.90;;;;;;;;;;5057602;28;20543;-61
2023/05/23 07:48:25;;;;;;;50.63;39.03;;;;;;;;;;5046789;28;20422;-61
2023/05/23 07:50:53;;;;;;;47.05;38.60;;;;;;;;;;5052063;28;20280;-61
2023/05/23 07:53:20;;;;;;;40.28;35.08;;;;;;;;;;5059198;28;20236;-61
2023/05/23 07:55:46;;;;;;;43.40;33.78;;;;;;;;;;5047117;28;20205;-62
2023/05/23 07:58:12;;;;;;;47.05;34.13;;;;;;;;;;5054627;28;20217;-61
2023/05/23 08:00:40;;;;;;;41.25;32.53;;;;;;;;;;5055413;28;20229;-61
2023/05/23 08:03:07;;;;;;;38.78;30.13;;;;;;;;;;5048834;28;20248;-61
2023/05/23 08:05:34;;;;;;;35.28;29.65;;;;;;;;;;5049492;28;20216;-62
2023/05/23 08:08:00;;;;;;;36.17;28.20;;;;;;;;;;5058357;28;20209;-62
2023/05/23 08:10:27;;;;;;;38.00;27.52;;;;;;;;;;5049513;28;20205;-61
2023/05/23 08:12:53;;;;;;;30.73;25.88;;;;;;;;;;5057318;28;20276;-61
2023/05/23 08:15:21;;;;;;;34.22;27.58;;;;;;;;;;5051376;28;20579;-62
2023/05/23 08:17:48;;;;;;;29.08;25.88;;;;;;;;;;5056324;28;20209;-61
2023/05/23 08:20:15;;;;;;;34.65;26.90;;;;;;;;;;5058005;28;20233;-61
2023/05/23 08:22:42;;;;;;;30.15;25.98;;;;;;;;;;5056578;28;20568;-62
2023/05/23 08:25:08;;;;;;;39.80;30.27;;;;;;;;;;5057915;28;20548;-61
2023/05/23 08:27:35;;;;;;;37.03;32.00;;;;;;;;;;5058384;28;20313;-61
2023/05/23 08:30:03;;;;;;;36.25;32.13;;;;;;;;;;5057536;28;20211;-61
2023/05/23 08:32:29;;;;;;;37.10;32.42;;;;;;;;;;5050630;28;20201;-61
2023/05/23 08:34:56;;;;;;;36.60;30.77;;;;;;;;;;5054808;28;20209;-62
2023/05/23 08:37:23;;;;;;;33.65;27.42;;;;;;;;;;5058661;28;20390;-62
2023/05/23 08:39:51;;;;;;;30.13;26.98;;;;;;;;;;5049112;28;20454;-62
2023/05/23 08:42:17;;;;;;;31.20;25.88;;;;;;;;;;5057944;28;20221;-61
2023/05/23 08:44:43;;;;;;;29.88;24.58;;;;;;;;;;5047276;28;20284;-62
2023/05/23 08:47:09;;;;;;;30.95;25.10;;;;;;;;;;5049843;28;20280;-61
2023/05/23 08:49:36;;;;;;;33.53;24.20;;;;;;;;;;5050016;28;20206;-62
2023/05/23 08:52:03;;;;;;;28.95;24.13;;;;;;;;;;5055045;28;20201;-62
2023/05/23 08:54:31;;;;;;;28.27;23.58;;;;;;;;;;5057552;28;20209;-61
2023/05/23 08:56:58;;;;;;;29.05;23.88;;;;;;;;;;5058277;28;20216;-61
2023/05/23 08:59:26;;;;;;;30.17;25.10;;;;;;;;;;5058809;28;20209;-61
2023/05/23 09:01:53;;;;;;;30.00;23.60;;;;;;;;;;5058964;28;20209;-62
2023/05/23 09:04:19;;;;;;;29.13;24.38;;;;;;;;;;5056075;28;20530;-61
2023/05/23 09:06:46;;;;;;;27.73;23.50;;;;;;;;;;5050398;28;20215;-61
2023/05/23 09:09:12;;;;;;;24.80;22.10;;;;;;;;;;5043399;28;20193;-61
2023/05/23 09:11:44;;;;;;;26.88;21.33;;;;;;;;;;5054138;28;20209;-62
2023/05/23 09:14:13;;;;;;;25.27;22.33;;;;;;;;;;5049994;28;20575;-62
2023/05/23 09:16:39;;;;;;;25.30;21.85;;;;;;;;;;5041542;28;20277;-61
2023/05/23 09:19:12;;;;;;;24.85;21.73;;;;;;;;;;5055006;28;20193;-61
2023/05/23 09:21:42;;;;;;;24.83;21.92;;;;;;;;;;5049927;28;20248;-62
2023/05/23 09:24:08;;;;;;;21.65;19.27;;;;;;;;;;5056986;28;20217;-62
2023/05/23 09:26:35;;;;;;;23.88;19.98;;;;;;;;;;5052723;28;20581;-61
2023/05/23 09:29:04;;;;;;;24.02;19.75;;;;;;;;;;5049568;28;20779;-61
2023/05/23 09:31:31;;;;;;;26.75;19.50;;;;;;;;;;5057710;28;20255;-61
2023/05/23 09:33:58;;;;;;;23.88;19.58;;;;;;;;;;5057057;28;20208;-62
2023/05/23 09:36:27;;;;;;;23.85;19.40;;;;;;;;;;5048348;28;20247;-61
2023/05/23 09:38:53;;;;;;;33.05;21.17;;;;;;;;;;5054576;28;20213;-61
2023/05/23 09:41:20;;;;;;;23.55;19.42;;;;;;;;;;5050332;28;20289;-62
2023/05/23 09:43:49;;;;;;;23.38;18.17;;;;;;;;;;5050012;28;20455;-61
2023/05/23 09:46:18;;;;;;;21.98;17.75;;;;;;;;;;5055346;28;20443;-62
2023/05/23 09:48:46;;;;;;;20.08;17.42;;;;;;;;;;5052244;28;20244;-61
2023/05/23 09:51:12;;;;;;;19.75;17.75;;;;;;;;;;5052994;28;20205;-61
2023/05/23 09:53:38;;;;;;;21.15;17.45;;;;;;;;;;5045317;28;20220;-61
2023/05/23 09:56:05;;;;;;;22.85;19.13;;;;;;;;;;5048978;28;20220;-61
2023/05/23 09:58:32;;;;;;;19.50;16.33;;;;;;;;;;5048885;28;20236;-61
2023/05/23 10:01:02;;;;;;;24.05;18.40;;;;;;;;;;5054773;28;20239;-61
2023/05/23 10:03:33;;;;;;;20.88;18.10;;;;;;;;;;5054213;28;20400;-60
2023/05/23 10:06:01;;;;;;;21.85;16.83;;;;;;;;;;5048018;28;20542;-59
2023/05/23 10:08:31;;;;;;;19.33;16.30;;;;;;;;;;5050309;28;20571;-60
2023/05/23 10:11:21;;;;;;;20.52;17.45;;;;;;;;;;5055875;28;20208;-59
2023/05/23 10:13:49;;;;;;;18.85;15.65;;;;;;;;;;5049835;28;20438;-59
2023/05/23 10:16:18;;;;;;;21.02;16.38;;;;;;;;;;5049647;28;20631;-60
2023/05/23 10:18:48;;;;;;;22.65;17.50;;;;;;;;;;5052372;28;20208;-60
2023/05/23 10:21:19;;;;;;;19.02;17.08;;;;;;;;;;5049143;28;20220;-60
2023/05/23 10:23:46;;;;;;;23.33;17.10;;;;;;;;;;5049267;28;20408;-60
2023/05/23 10:26:13;;;;;;;20.70;17.23;;;;;;;;;;5045272;28;20528;-60
2023/05/23 10:28:40;;;;;;;18.60;16.42;;;;;;;;;;5049904;28;20271;-60
2023/05/23 10:31:06;;;;;;;22.27;16.30;;;;;;;;;;5054226;28;20528;-60
2023/05/23 10:33:35;;;;;;;18.38;15.38;;;;;;;;;;5049356;28;20467;-60
2023/05/23 10:36:08;;;;;;;18.00;16.05;;;;;;;;;;5048569;28;20622;-60
2023/05/23 10:38:36;;;;;;;19.65;16.27;;;;;;;;;;5059069;28;20217;-60
2023/05/23 10:41:06;;;;;;;19.08;16.85;;;;;;;;;;5050774;28;20225;-59
2023/05/23 10:43:36;;;;;;;18.05;15.85;;;;;;;;;;5045121;28;20210;-60
2023/05/23 10:46:02;;;;;;;22.05;16.30;;;;;;;;;;5052171;28;20443;-59
2023/05/23 10:48:34;;;;;;;24.73;16.35;;;;;;;;;;5055992;28;20517;-59
2023/05/23 10:51:05;;;;;;;19.10;16.20;;;;;;;;;;5048072;28;20217;-60
2023/05/23 10:53:32;;;;;;;17.48;13.88;;;;;;;;;;5044475;28;20209;-60
2023/05/23 10:55:58;;;;;;;16.38;14.45;;;;;;;;;;5058968;28;20213;-59
2023/05/23 10:58:24;;;;;;;17.52;15.02;;;;;;;;;;5054188;28;20237;-59
2023/05/23 11:00:54;;;;;;;16.75;14.75;;;;;;;;;;5046700;28;20214;-59
2023/05/23 11:03:32;;;;;;;16.02;14.35;;;;;;;;;;5053501;28;20209;-59
2023/05/23 11:05:59;;;;;;;19.13;14.90;;;;;;;;;;5056237;28;20213;-59
2023/05/23 11:08:28;;;;;;;15.85;14.10;;;;;;;;;;5056707;28;20251;-59
2023/05/23 11:10:55;;;;;;;15.75;14.00;;;;;;;;;;5060098;28;20333;-59
2023/05/23 11:13:21;;;;;;;15.98;13.65;;;;;;;;;;5053948;28;20228;-58
2023/05/23 11:15:48;;;;;;;14.98;13.50;;;;;;;;;;5052275;28;20209;-60
2023/05/23 11:18:20;;;;;;;15.55;13.88;;;;;;;;;;5052974;28;20350;-60
2023/05/23 11:20:47;;;;;;;14.18;12.38;;;;;;;;;;5056884;28;20229;-60
2023/05/23 11:23:13;;;;;;;12.43;11.40;;;;;;;;;;5057848;28;20412;-59
2023/05/23 11:25:41;;;;;;;12.88;11.57;;;;;;;;;;5057777;28;20362;-60
2023/05/23 11:28:08;;;;;;;13.77;12.38;;;;;;;;;;5053771;28;20228;-60
2023/05/23 11:30:36;;;;;;;13.00;11.20;;;;;;;;;;5058714;28;20205;-58
2023/05/23 11:33:07;;;;;;;11.65;10.68;;;;;;;;;;5057116;28;20541;-59
2023/05/23 11:35:33;;;;;;;12.93;11.55;;;;;;;;;;5062182;28;20209;-60
2023/05/23 11:37:59;;;;;;;12.00;10.80;;;;;;;;;;5059142;28;20242;-60
2023/05/23 11:40:29;;;;;;;10.70;9.75;;;;;;;;;;5055345;28;20567;-59
2023/05/23 11:42:57;;;;;;;13.77;10.48;;;;;;;;;;5060092;28;20394;-59
2023/05/23 11:45:23;;;;;;;11.95;8.88;;;;;;;;;;5061601;28;20243;-60
2023/05/23 11:47:49;;;;;;;11.63;9.15;;;;;;;;;;5062331;28;20209;-60
2023/05/23 11:50:16;;;;;;;12.43;10.27;;;;;;;;;;5062297;28;20216;-60
2023/05/23 11:52:43;;;;;;;9.13;8.32;;;;;;;;;;5054367;28;20423;-60
2023/05/23 11:55:09;;;;;;;9.52;8.52;;;;;;;;;;5051588;28;20216;-59
2023/05/23 11:57:38;;;;;;;10.82;8.70;;;;;;;;;;5057081;28;20425;-60
2023/05/23 12:00:07;;;;;;;9.57;8.60;;;;;;;;;;5050859;28;20221;-59
2023/05/23 12:02:38;;;;;;;8.00;7.40;;;;;;;;;;5061644;28;20274;-60
2023/05/23 12:05:06;;;;;;;8.93;7.75;;;;;;;;;;5061597;28;20512;-60
2023/05/23 12:07:33;;;;;;;9.48;7.57;;;;;;;;;;5060552;28;20220;-60
2023/05/23 12:09:59;;;;;;;7.57;7.07;;;;;;;;;;5056643;28;20217;-60
2023/05/23 12:12:26;;;;;;;8.63;7.15;;;;;;;;;;5060825;28;20504;-60
2023/05/23 12:14:55;;;;;;;11.75;8.73;;;;;;;;;;5057692;28;20221;-59
2023/05/23 12:17:22;;;;;;;10.52;8.32;;;;;;;;;;5061872;28;20228;-60
2023/05/23 12:19:49;;;;;;;9.75;8.88;;;;;;;;;;5061594;28;20208;-61
2023/05/23 12:22:22;;;;;;;11.63;10.43;;;;;;;;;;5054419;28;20233;-59
2023/05/23 12:24:48;;;;;;;10.30;9.40;;;;;;;;;;5058192;28;20209;-60
2023/05/23 12:27:16;;;;;;;13.18;10.63;;;;;;;;;;5060587;28;20237;-59
2023/05/23 12:29:42;;;;;;;14.23;10.57;;;;;;;;;;5061102;28;20272;-61
2023/05/23 12:32:08;;;;;;;11.02;9.65;;;;;;;;;;5061558;28;20205;-60
2023/05/23 12:34:40;;;;;;;10.73;9.65;;;;;;;;;;5061355;28;20213;-60
2023/05/23 12:37:07;;;;;;;13.23;9.55;;;;;;;;;;5060553;28;20213;-60
2023/05/23 12:39:36;;;;;;;13.73;9.75;;;;;;;;;;5060446;28;20209;-60
2023/05/23 12:42:11;;;;;;;11.70;9.15;;;;;;;;;;5051951;28;20239;-60
2023/05/23 12:44:40;;;;;;;9.35;8.50;;;;;;;;;;5060282;28;20232;-59
2023/05/23 12:47:06;;;;;;;10.20;8.30;;;;;;;;;;5059914;28;20217;-60
2023/05/23 12:49:33;;;;;;;9.63;8.70;;;;;;;;;;5061004;28;20201;-59
2023/05/23 12:52:00;;;;;;;8.75;7.47;;;;;;;;;;5059779;28;20213;-60
2023/05/23 12:54:26;;;;;;;9.07;7.57;;;;;;;;;;5056224;28;20255;-59
2023/05/23 12:56:53;;;;;;;9.15;7.72;;;;;;;;;;5053765;28;20212;-59
2023/05/23 12:59:19;;;;;;;8.52;7.82;;;;;;;;;;5057128;28;20254;-59
2023/05/23 13:01:46;;;;;;;8.63;7.85;;;;;;;;;;5055780;28;20232;-60
2023/05/23 13:04:12;;;;;;;7.78;7.15;;;;;;;;;;5055124;28;20237;-59
2023/05/23 13:06:38;;;;;;;8.05;7.25;;;;;;;;;;5047937;28;20231;-60
2023/05/23 13:09:06;;;;;;;7.07;6.47;;;;;;;;;;5055000;28;20654;-60
2023/05/23 13:11:32;;;;;;;8.18;7.57;;;;;;;;;;5050738;28;20206;-61
2023/05/23 13:13:58;;;;;;;8.00;7.10;;;;;;;;;;5058251;28;20262;-59
2023/05/23 13:16:24;;;;;;;7.72;7.10;;;;;;;;;;5060328;28;20466;-59
2023/05/23 13:18:50;;;;;;;8.35;7.50;;;;;;;;;;5060467;28;20469;-59
2023/05/23 13:21:17;;;;;;;7.43;6.72;;;;;;;;;;5060507;28;20233;-60
2023/05/23 13:23:43;;;;;;;7.68;6.82;;;;;;;;;;5049962;28;20235;-59
2023/05/23 13:26:11;;;;;;;7.55;6.50;;;;;;;;;;5058160;28;20212;-59
2023/05/23 13:28:37;;;;;;;6.72;6.22;;;;;;;;;;5053891;28;20228;-59
2023/05/23 13:31:03;;;;;;;6.28;5.78;;;;;;;;;;5060241;28;20285;-59
2023/05/23 13:33:29;;;;;;;7.88;5.95;;;;;;;;;;5056336;28;20209;-60
2023/05/23 13:35:56;;;;;;;6.30;5.90;;;;;;;;;;5059598;28;20220;-60
2023/05/23 13:38:22;;;;;;;6.60;6.03;;;;;;;;;;5059477;28;20438;-60
2023/05/23 13:40:50;;;;;;;6.10;5.60;;;;;;;;;;5058910;28;20590;-60
2023/05/23 13:43:18;;;;;;;6.00;5.60;;;;;;;;;;5054683;28;20211;-60
2023/05/23 13:45:44;;;;;;;6.07;5.63;;;;;;;;;;5059292;28;20212;-60
2023/05/23 13:48:10;;;;;;;5.70;5.30;;;;;;;;;;5059197;28;20217;-59
2023/05/23 13:50:36;;;;;;;5.93;5.53;;;;;;;;;;5056126;28;20209;-60
2023/05/23 13:53:03;;;;;;;5.25;5.05;;;;;;;;;;5050677;28;20208;-60
2023/05/23 13:55:29;;;;;;;5.25;4.95;;;;;;;;;;5059374;28;20204;-60
2023/05/23 13:57:55;;;;;;;5.57;5.10;;;;;;;;;;5058373;28;20669;-61
2023/05/23 14:00:23;;;;;;;5.03;4.53;;;;;;;;;;5058651;28;20532;-61
2023/05/23 14:02:49;;;;;;;5.05;4.65;;;;;;;;;;5058374;28;20233;-60
2023/05/23 14:05:18;;;;;;;4.68;4.30;;;;;;;;;;5058095;28;20212;-60
2023/05/23 14:07:46;;;;;;;4.40;4.20;;;;;;;;;;5055865;28;20216;-60
2023/05/23 14:10:13;;;;;;;4.75;4.45;;;;;;;;;;5055511;28;20255;-60
2023/05/23 14:12:39;;;;;;;5.72;4.93;;;;;;;;;;5059279;28;20496;-60
2023/05/23 14:15:05;;;;;;;4.70;4.45;;;;;;;;;;5051694;28;20545;-61
2023/05/23 14:17:34;;;;;;;5.30;4.93;;;;;;;;;;5053895;28;20455;-61
2023/05/23 14:20:00;;;;;;;4.82;4.63;;;;;;;;;;5055738;28;20338;-61